createdAt,value
2023-02-27T00:00:22.012Z,-1.07
2023-02-27T00:02:52.076Z,-1.13
2023-02-27T00:05:23.336Z,-1.16
2023-02-27T00:07:51.261Z,-1.02
2023-02-27T00:10:19.303Z,-1.07
2023-02-27T00:12:47.162Z,-1.27
2023-02-27T00:15:16.970Z,-1.15
2023-02-27T00:17:45.894Z,-1.07
2023-02-27T00:20:15.832Z,-0.95
2023-02-27T00:22:45.837Z,-0.88
2023-02-27T00:25:14.372Z,-0.85
2023-02-27T00:27:42.621Z,-0.93
2023-02-27T00:30:12.736Z,-0.97
2023-02-27T00:32:40.924Z,-0.95
2023-02-27T00:35:11.712Z,-0.81
2023-02-27T00:37:40.507Z,-0.78
2023-02-27T00:40:11.559Z,-0.84
2023-02-27T00:42:39.535Z,-0.86
2023-02-27T00:45:09.744Z,-0.89
2023-02-27T00:47:37.677Z,-1.00
2023-02-27T00:50:06.189Z,-1.12
2023-02-27T00:52:34.589Z,-1.25
2023-02-27T00:55:02.426Z,-1.30
2023-02-27T00:57:31.767Z,-1.19
2023-02-27T00:59:59.537Z,-1.43
2023-02-27T01:02:27.876Z,-1.30
2023-02-27T01:04:56.908Z,-1.30
2023-02-27T01:07:25.200Z,-1.35
2023-02-27T01:09:54.621Z,-1.30
2023-02-27T01:12:22.520Z,-1.19
2023-02-27T01:14:51.760Z,-1.25
2023-02-27T01:17:19.736Z,-1.32
2023-02-27T01:19:47.635Z,-1.33
2023-02-27T01:22:15.575Z,-1.40
2023-02-27T01:24:43.651Z,-1.33
2023-02-27T01:27:11.597Z,-1.39
2023-02-27T01:29:39.512Z,-1.35
2023-02-27T01:32:09.040Z,-1.32
2023-02-27T01:34:36.955Z,-1.26
2023-02-27T01:37:04.772Z,-1.35
2023-02-27T01:39:33.512Z,-1.32
2023-02-27T01:42:01.951Z,-1.39
2023-02-27T01:44:31.941Z,-1.46
2023-02-27T01:46:59.884Z,-1.50
2023-02-27T01:49:34.227Z,-1.46
2023-02-27T01:52:06.871Z,-1.46
2023-02-27T01:54:37.768Z,-1.53
2023-02-27T01:57:07.203Z,-1.51
2023-02-27T01:59:35.912Z,-1.54
2023-02-27T02:02:05.840Z,-1.58
2023-02-27T02:04:40.355Z,-1.53
2023-02-27T02:07:11.393Z,-1.57
2023-02-27T02:09:45.196Z,-1.53
2023-02-27T02:12:16.609Z,-1.48
2023-02-27T02:14:44.524Z,-1.60
2023-02-27T02:17:21.220Z,-1.66
2023-02-27T02:20:19.076Z,-1.75
2023-02-27T02:23:14.650Z,-1.78
2023-02-27T02:26:15.273Z,-1.95
2023-02-27T02:29:18.369Z,-1.81
2023-02-27T02:32:17.745Z,-1.72
2023-02-27T02:35:35.941Z,-1.68
2023-02-27T02:38:29.161Z,-1.78
2023-02-27T02:41:01.441Z,-1.84
2023-02-27T02:43:32.490Z,-1.78
2023-02-27T02:46:04.260Z,-1.81
2023-02-27T02:48:40.846Z,-1.92
2023-02-27T02:51:16.092Z,-1.97
2023-02-27T02:53:52.715Z,-1.91
2023-02-27T02:56:25.999Z,-1.88
2023-02-27T02:58:59.739Z,-1.84
2023-02-27T03:01:33.173Z,-1.98
2023-02-27T03:04:08.084Z,-1.98
2023-02-27T03:06:39.412Z,-1.89
2023-02-27T03:09:13.237Z,-1.91
2023-02-27T03:11:45.189Z,-1.88
2023-02-27T03:14:17.761Z,-1.94
2023-02-27T03:16:49.936Z,-2.02
2023-02-27T03:19:24.145Z,-2.12
2023-02-27T03:21:56.825Z,-2.19
2023-02-27T03:24:28.935Z,-2.26
2023-02-27T03:26:59.469Z,-2.09
2023-02-27T03:29:36.795Z,-2.15
2023-02-27T03:32:13.274Z,-2.19
2023-02-27T03:34:43.514Z,-2.23
2023-02-27T03:37:23.783Z,-2.28
2023-02-27T03:39:56.298Z,-2.18
2023-02-27T03:42:33.488Z,-2.29
2023-02-27T03:45:17.814Z,-2.26
2023-02-27T03:47:47.205Z,-2.28
2023-02-27T03:50:16.479Z,-2.43
2023-02-27T03:52:45.485Z,-2.48
2023-02-27T03:55:17.373Z,-2.54
2023-02-27T03:57:48.473Z,-2.71
2023-02-27T04:00:19.412Z,-2.80
2023-02-27T04:02:51.595Z,-3.05
2023-02-27T04:05:24.090Z,-3.04
2023-02-27T04:08:15.086Z,-3.08
2023-02-27T04:11:00.365Z,-2.33
2023-02-27T04:13:55.218Z,-0.68
2023-02-27T04:16:51.901Z,-0.38
2023-02-27T04:19:35.192Z,-0.09
2023-02-27T04:22:14.949Z,0.58
2023-02-27T04:24:52.779Z,0.54
2023-02-27T04:27:28.423Z,1.10
2023-02-27T04:30:03.164Z,0.62
2023-02-27T04:32:37.084Z,0.59
2023-02-27T04:35:08.792Z,0.90
2023-02-27T04:37:43.684Z,0.78
2023-02-27T04:40:15.203Z,0.79
2023-02-27T04:42:48.865Z,0.68
2023-02-27T04:45:21.879Z,0.29
2023-02-27T04:47:54.601Z,0.08
2023-02-27T04:50:26.845Z,-0.20
2023-02-27T04:52:58.950Z,-0.33
2023-02-27T04:55:30.040Z,-0.34
2023-02-27T04:58:04.052Z,0.04
2023-02-27T05:00:34.068Z,-0.04
2023-02-27T05:03:10.944Z,0.13
2023-02-27T05:05:42.359Z,-0.20
2023-02-27T05:08:14.956Z,-0.20
2023-02-27T05:10:50.457Z,-0.07
2023-02-27T05:13:21.780Z,0.73
2023-02-27T05:15:52.952Z,0.68
2023-02-27T05:18:23.536Z,1.24
2023-02-27T05:21:02.582Z,2.12
2023-02-27T05:23:37.402Z,1.83
2023-02-27T05:26:16.432Z,1.46
2023-02-27T05:28:53.197Z,2.43
2023-02-27T05:31:27.848Z,2.94
2023-02-27T05:34:00.273Z,3.21
2023-02-27T05:36:32.787Z,3.16
2023-02-27T05:39:03.747Z,2.32
2023-02-27T05:41:35.795Z,1.27
2023-02-27T05:44:09.952Z,0.70
2023-02-27T05:46:42.342Z,0.28
2023-02-27T05:49:16.021Z,-0.14
2023-02-27T05:51:47.360Z,0.06
2023-02-27T05:54:21.150Z,-0.20
2023-02-27T05:56:53.167Z,-0.44
2023-02-27T05:59:27.857Z,-0.25
2023-02-27T06:01:55.989Z,-0.65
2023-02-27T06:04:24.011Z,-0.37
2023-02-27T06:06:52.670Z,-0.13
2023-02-27T06:09:20.916Z,0.11
2023-02-27T06:11:48.967Z,0.44
2023-02-27T06:14:16.811Z,0.21
2023-02-27T06:16:46.057Z,0.40
2023-02-27T06:19:13.890Z,-0.30
2023-02-27T06:21:41.931Z,-0.62
2023-02-27T06:24:10.047Z,-1.26
2023-02-27T06:26:37.936Z,-1.75
2023-02-27T06:29:05.797Z,-2.19
2023-02-27T06:31:33.695Z,-2.63
2023-02-27T06:34:02.880Z,-2.91
2023-02-27T06:36:30.867Z,-3.11
2023-02-27T06:38:58.845Z,-3.05
2023-02-27T06:41:26.851Z,-3.08
2023-02-27T06:43:55.718Z,-2.83
2023-02-27T06:46:23.527Z,-2.70
2023-02-27T06:48:51.360Z,-2.35
2023-02-27T06:51:20.549Z,-1.72
2023-02-27T06:53:48.543Z,-1.27
2023-02-27T06:56:16.432Z,-1.00
2023-02-27T06:58:44.302Z,-0.95
2023-02-27T07:01:13.324Z,-0.96
2023-02-27T07:03:41.370Z,-0.86
2023-02-27T07:06:09.294Z,-0.37
2023-02-27T07:08:38.588Z,0.55
2023-02-27T07:11:26.454Z,1.75
2023-02-27T07:13:54.292Z,2.63
2023-02-27T07:16:22.110Z,3.42
2023-02-27T07:18:49.997Z,4.31
2023-02-27T07:21:17.826Z,4.97
2023-02-27T07:23:46.992Z,5.68
2023-02-27T07:26:14.834Z,6.34
2023-02-27T07:28:42.718Z,6.97
2023-02-27T07:31:10.754Z,7.58
2023-02-27T07:33:38.559Z,7.87
2023-02-27T07:36:06.990Z,8.30
2023-02-27T07:38:34.814Z,8.93
2023-02-27T07:41:03.998Z,9.22
2023-02-27T07:43:32.015Z,9.24
2023-02-27T07:45:59.891Z,9.31
2023-02-27T07:48:27.712Z,9.99
2023-02-27T07:50:55.560Z,9.97
2023-02-27T07:53:23.433Z,10.45
2023-02-27T07:55:51.288Z,10.83
2023-02-27T07:58:20.493Z,11.03
2023-02-27T08:00:48.440Z,11.57
2023-02-27T08:03:16.800Z,11.85
2023-02-27T08:05:44.684Z,12.24
2023-02-27T08:08:12.519Z,12.45
2023-02-27T08:10:40.365Z,12.91
2023-02-27T08:13:08.237Z,13.08
2023-02-27T08:15:37.422Z,13.30
2023-02-27T08:18:05.410Z,13.45
2023-02-27T08:20:33.277Z,13.50
2023-02-27T08:23:01.140Z,13.06
2023-02-27T08:25:30.168Z,12.64
2023-02-27T08:27:58.051Z,13.06
2023-02-27T08:30:25.905Z,13.25
2023-02-27T08:32:55.673Z,12.27
2023-02-27T08:35:23.944Z,13.33
2023-02-27T08:37:51.789Z,13.18
2023-02-27T08:40:19.754Z,13.04
2023-02-27T08:42:47.619Z,13.23
2023-02-27T08:45:15.445Z,13.93
2023-02-27T08:47:45.221Z,13.91
2023-02-27T08:50:14.493Z,14.15
2023-02-27T08:52:42.295Z,13.05
2023-02-27T08:55:10.869Z,11.61
2023-02-27T08:57:38.768Z,10.48
2023-02-27T09:00:08.299Z,11.71
2023-02-27T09:02:36.288Z,12.45
2023-02-27T09:05:04.219Z,11.32
2023-02-27T09:07:34.450Z,12.51
2023-02-27T09:10:02.314Z,11.20
2023-02-27T09:12:30.267Z,10.64
2023-02-27T09:14:58.174Z,11.27
2023-02-27T09:17:26.132Z,10.97
2023-02-27T09:19:56.463Z,8.65
2023-02-27T09:22:25.628Z,8.96
2023-02-27T09:24:54.889Z,8.75
2023-02-27T09:27:23.838Z,8.82
2023-02-27T09:29:55.418Z,9.62
2023-02-27T09:32:23.503Z,9.68
2023-02-27T09:34:51.690Z,9.74
2023-02-27T09:37:20.197Z,9.00
2023-02-27T09:39:48.422Z,10.36
2023-02-27T09:42:20.490Z,10.56
2023-02-27T09:44:50.559Z,10.11
2023-02-27T09:47:24.252Z,10.28
2023-02-27T09:50:01.914Z,9.13
2023-02-27T09:52:32.212Z,9.29
2023-02-27T09:55:00.538Z,9.40
2023-02-27T09:57:42.095Z,8.62
2023-02-27T10:00:27.886Z,9.68
2023-02-27T10:03:04.841Z,8.97
2023-02-27T10:05:37.128Z,9.52
2023-02-27T10:08:11.440Z,9.97
2023-02-27T10:10:47.498Z,10.70
2023-02-27T10:13:36.089Z,10.63
2023-02-27T10:16:05.447Z,10.79
2023-02-27T10:18:35.508Z,10.55
2023-02-27T10:21:09.279Z,9.36
2023-02-27T10:23:41.438Z,9.60
2023-02-27T10:26:19.140Z,8.64
2023-02-27T10:28:48.511Z,9.48
2023-02-27T10:31:20.169Z,7.96
2023-02-27T10:33:49.121Z,9.89
2023-02-27T10:36:32.573Z,11.28
2023-02-27T10:39:05.786Z,9.95
2023-02-27T10:41:34.090Z,10.80
2023-02-27T10:44:03.387Z,9.60
2023-02-27T10:46:32.216Z,9.98
2023-02-27T10:49:01.815Z,9.68
2023-02-27T10:51:31.883Z,9.12
2023-02-27T10:54:23.443Z,9.77
2023-02-27T10:56:53.592Z,7.62
2023-02-27T10:59:26.171Z,8.78
2023-02-27T11:01:55.842Z,9.97
2023-02-27T11:04:30.984Z,10.39
2023-02-27T11:06:59.874Z,11.30
2023-02-27T11:09:30.368Z,11.04
2023-02-27T11:12:13.043Z,9.20
2023-02-27T11:14:52.748Z,9.07
2023-02-27T11:17:28.614Z,8.97
2023-02-27T11:19:57.739Z,8.92
2023-02-27T11:22:28.053Z,8.44
2023-02-27T11:25:21.641Z,7.87
2023-02-27T11:27:52.108Z,7.31
2023-02-27T11:30:28.101Z,7.15
2023-02-27T11:32:58.623Z,7.73
2023-02-27T11:35:29.425Z,8.13
2023-02-27T11:38:00.119Z,8.38
2023-02-27T11:40:31.883Z,6.39
2023-02-27T11:43:04.959Z,6.32
2023-02-27T11:46:04.732Z,6.12
2023-02-27T11:48:29.443Z,8.08
2023-02-27T11:51:13.537Z,8.13
2023-02-27T11:54:09.462Z,6.40
2023-02-27T11:56:39.847Z,7.84
2023-02-27T11:59:18.629Z,8.92
2023-02-27T12:01:51.637Z,6.70
2023-02-27T12:04:24.407Z,5.67
2023-02-27T12:06:58.346Z,5.55
2023-02-27T12:09:37.185Z,5.55
2023-02-27T12:12:11.017Z,6.36
2023-02-27T12:14:46.613Z,5.39
2023-02-27T12:17:21.192Z,7.61
2023-02-27T12:20:02.175Z,8.04
2023-02-27T12:22:33.518Z,8.37
2023-02-27T12:25:06.993Z,6.66
2023-02-27T12:27:44.135Z,7.45
2023-02-27T12:30:18.774Z,7.31
2023-02-27T12:32:53.831Z,5.67
2023-02-27T12:35:24.945Z,4.78
2023-02-27T12:37:53.772Z,5.22
2023-02-27T12:40:29.293Z,6.43
2023-02-27T12:43:14.604Z,6.73
2023-02-27T12:46:01.535Z,6.80
2023-02-27T12:48:48.137Z,7.66
2023-02-27T12:51:30.663Z,7.98
2023-02-27T12:54:19.320Z,6.50
2023-02-27T12:57:02.675Z,5.23
2023-02-27T12:59:45.574Z,5.50
2023-02-27T13:02:29.579Z,6.84
2023-02-27T13:05:10.254Z,7.38
2023-02-27T13:07:44.396Z,7.25
2023-02-27T13:10:17.140Z,7.15
2023-02-27T13:12:52.277Z,6.98
2023-02-27T13:15:25.455Z,7.38
2023-02-27T13:17:57.318Z,7.18
2023-02-27T13:20:35.036Z,6.53
2023-02-27T13:23:17.212Z,6.39
2023-02-27T13:25:48.301Z,5.33
2023-02-27T13:28:19.831Z,5.36
2023-02-27T13:30:59.606Z,5.84
2023-02-27T13:33:34.316Z,5.99
2023-02-27T13:36:13.111Z,6.13
2023-02-27T13:38:47.098Z,6.50
2023-02-27T13:41:38.489Z,6.60
2023-02-27T13:44:51.500Z,6.29
2023-02-27T13:47:49.984Z,6.18
2023-02-27T13:50:50.310Z,6.29
2023-02-27T13:53:24.521Z,6.52
2023-02-27T13:55:56.302Z,6.42
2023-02-27T13:58:25.715Z,5.65
2023-02-27T14:00:57.543Z,5.52
2023-02-27T14:03:28.006Z,5.15
2023-02-27T14:05:59.367Z,5.34
2023-02-27T14:08:30.534Z,5.29
2023-02-27T14:11:02.760Z,5.44
2023-02-27T14:14:03.919Z,5.74
2023-02-27T14:16:54.551Z,5.33
2023-02-27T14:19:50.625Z,5.03
2023-02-27T14:22:44.031Z,4.92
2023-02-27T14:25:35.792Z,4.83
2023-02-27T14:28:05.196Z,4.89
2023-02-27T14:30:39.299Z,4.55
2023-02-27T14:33:37.710Z,4.42
2023-02-27T14:36:10.480Z,4.88
2023-02-27T14:38:39.554Z,4.58
2023-02-27T14:41:16.632Z,4.86
2023-02-27T14:43:46.708Z,5.13
2023-02-27T14:46:25.484Z,5.19
2023-02-27T14:48:57.481Z,4.97
2023-02-27T14:51:26.813Z,4.55
2023-02-27T14:54:06.997Z,4.48
2023-02-27T14:56:36.366Z,4.30
2023-02-27T14:59:05.226Z,4.42
2023-02-27T15:01:37.571Z,4.54
2023-02-27T15:04:06.164Z,4.72
2023-02-27T15:06:44.037Z,4.62
2023-02-27T15:09:23.030Z,4.62
2023-02-27T15:12:03.090Z,4.49
2023-02-27T15:14:35.916Z,4.34
2023-02-27T15:17:05.508Z,4.30
2023-02-27T15:19:33.492Z,4.31
2023-02-27T15:22:05.275Z,4.37
2023-02-27T15:24:48.877Z,4.37
2023-02-27T15:27:22.023Z,4.30
2023-02-27T15:29:52.318Z,4.17
2023-02-27T15:32:26.593Z,4.16
2023-02-27T15:34:55.269Z,4.18
2023-02-27T15:37:26.157Z,4.21
2023-02-27T15:39:55.130Z,4.16
2023-02-27T15:42:27.131Z,4.08
2023-02-27T15:44:55.922Z,4.08
2023-02-27T15:47:26.554Z,4.10
2023-02-27T15:49:59.713Z,4.08
2023-02-27T15:52:32.650Z,4.16
2023-02-27T15:55:03.535Z,4.31
2023-02-27T15:57:33.996Z,4.34
2023-02-27T16:00:02.356Z,4.41
2023-02-27T16:02:44.774Z,4.34
2023-02-27T16:05:18.543Z,4.18
2023-02-27T16:07:47.449Z,4.11
2023-02-27T16:10:21.039Z,4.01
2023-02-27T16:12:50.818Z,3.97
2023-02-27T16:15:31.245Z,3.86
2023-02-27T16:18:01.546Z,3.80
2023-02-27T16:20:40.846Z,3.72
2023-02-27T16:23:15.807Z,3.70
2023-02-27T16:26:00.113Z,3.65
2023-02-27T16:28:31.830Z,3.59
2023-02-27T16:30:59.991Z,3.59
2023-02-27T16:33:32.710Z,3.52
2023-02-27T16:36:16.259Z,3.48
2023-02-27T16:38:44.350Z,3.52
2023-02-27T16:41:15.760Z,3.52
2023-02-27T16:43:46.697Z,3.48
2023-02-27T16:46:20.098Z,3.43
2023-02-27T16:48:50.950Z,3.35
2023-02-27T16:51:21.499Z,3.28
2023-02-27T16:53:53.574Z,3.19
2023-02-27T16:56:37.039Z,3.11
2023-02-27T16:59:07.620Z,2.98
2023-02-27T17:01:35.700Z,2.95
2023-02-27T17:04:13.411Z,2.93
2023-02-27T17:06:44.519Z,2.85
2023-02-27T17:09:12.722Z,2.84
2023-02-27T17:11:40.641Z,2.79
2023-02-27T17:14:09.850Z,2.65
2023-02-27T17:16:37.787Z,2.65
2023-02-27T17:19:05.900Z,2.58
2023-02-27T17:21:34.936Z,2.53
2023-02-27T17:24:03.124Z,2.49
2023-02-27T17:26:31.196Z,2.42
2023-02-27T17:28:59.384Z,2.46
2023-02-27T17:31:28.618Z,2.40
2023-02-27T17:33:56.501Z,2.34
2023-02-27T17:36:24.970Z,2.28
2023-02-27T17:38:56.150Z,2.22
2023-02-27T17:41:24.484Z,2.18
2023-02-27T17:43:52.709Z,2.18
2023-02-27T17:46:20.660Z,2.22
2023-02-27T17:48:50.240Z,2.11
2023-02-27T17:51:19.408Z,2.16
2023-02-27T17:53:47.707Z,2.02
2023-02-27T17:56:15.849Z,1.99
2023-02-27T17:58:45.456Z,1.97
2023-02-27T18:01:16.974Z,2.03
2023-02-27T18:03:45.099Z,2.15
2023-02-27T18:06:14.708Z,2.11
2023-02-27T18:08:43.044Z,2.01
2023-02-27T18:11:12.035Z,1.83
2023-02-27T18:13:40.985Z,1.85
2023-02-27T18:16:10.056Z,1.79
2023-02-27T18:18:39.149Z,1.83
2023-02-27T18:21:09.828Z,1.77
2023-02-27T18:23:39.268Z,1.83
2023-02-27T18:26:07.184Z,1.79
2023-02-27T18:28:36.198Z,1.77
2023-02-27T18:31:04.214Z,1.86
2023-02-27T18:33:32.240Z,1.78
2023-02-27T18:36:00.153Z,1.71
2023-02-27T18:38:28.030Z,1.71
2023-02-27T18:40:58.411Z,1.74
2023-02-27T18:43:26.881Z,1.65
2023-02-27T18:45:54.903Z,1.79
2023-02-27T18:48:22.991Z,1.78
2023-02-27T18:50:50.927Z,1.65
2023-02-27T18:53:19.193Z,1.58
2023-02-27T18:55:47.100Z,1.61
2023-02-27T18:58:16.397Z,1.57
2023-02-27T19:00:44.333Z,1.48
2023-02-27T19:03:12.385Z,1.46
2023-02-27T19:05:42.396Z,1.34
2023-02-27T19:08:10.568Z,1.34
2023-02-27T19:10:39.445Z,1.27
2023-02-27T19:13:09.407Z,1.31
2023-02-27T19:15:39.471Z,1.36
2023-02-27T19:18:07.674Z,1.31
2023-02-27T19:20:35.841Z,1.24
2023-02-27T19:23:03.785Z,1.27
2023-02-27T19:25:32.048Z,1.19
2023-02-27T19:28:01.038Z,1.12
2023-02-27T19:30:28.956Z,1.30
2023-02-27T19:32:58.381Z,1.16
2023-02-27T19:35:26.125Z,1.17
2023-02-27T19:37:58.115Z,1.12
2023-02-27T19:40:28.141Z,1.07
2023-02-27T19:42:56.192Z,1.00
2023-02-27T19:45:27.204Z,1.06
2023-02-27T19:47:55.145Z,1.06
2023-02-27T19:50:24.492Z,0.96
2023-02-27T19:52:52.357Z,1.01
2023-02-27T19:55:20.524Z,1.06
2023-02-27T19:57:48.594Z,0.99
2023-02-27T20:00:18.118Z,1.03
2023-02-27T20:02:46.022Z,0.95
2023-02-27T20:05:15.801Z,0.88
2023-02-27T20:07:46.761Z,0.95
2023-02-27T20:10:14.674Z,0.93
2023-02-27T20:12:42.817Z,0.92
2023-02-27T20:15:11.946Z,1.00
2023-02-27T20:17:41.960Z,0.99
2023-02-27T20:20:11.530Z,0.97
2023-02-27T20:22:44.268Z,0.88
2023-02-27T20:25:13.812Z,0.70
2023-02-27T20:27:41.786Z,0.73
2023-02-27T20:30:11.523Z,0.54
2023-02-27T20:32:39.705Z,0.59
2023-02-27T20:35:08.572Z,0.52
2023-02-27T20:37:36.504Z,0.35
2023-02-27T20:40:04.823Z,0.34
2023-02-27T20:42:34.120Z,0.15
2023-02-27T20:45:01.925Z,0.14
2023-02-27T20:47:29.840Z,0.25
2023-02-27T20:49:57.843Z,0.42
2023-02-27T20:52:25.752Z,0.45
2023-02-27T20:54:55.262Z,0.35
2023-02-27T20:57:23.192Z,0.25
2023-02-27T20:59:52.715Z,0.17
2023-02-27T21:02:20.507Z,0.04
2023-02-27T21:04:50.642Z,-0.06
2023-02-27T21:07:22.546Z,-0.18
2023-02-27T21:09:51.059Z,-0.30
2023-02-27T21:12:19.071Z,-0.40
2023-02-27T21:14:49.335Z,-0.42
2023-02-27T21:17:21.293Z,-0.50
2023-02-27T21:19:49.227Z,-0.64
2023-02-27T21:22:17.191Z,-0.69
2023-02-27T21:24:46.750Z,-0.64
2023-02-27T21:27:14.700Z,-0.72
2023-02-27T21:29:42.624Z,-0.41
2023-02-27T21:32:10.562Z,-0.37
2023-02-27T21:34:39.864Z,-0.33
2023-02-27T21:37:09.931Z,-0.10
2023-02-27T21:39:37.817Z,0.07
2023-02-27T21:42:06.753Z,0.13
2023-02-27T21:44:34.659Z,0.07
2023-02-27T21:47:09.770Z,0.19
2023-02-27T21:49:39.376Z,0.25
2023-02-27T21:52:07.706Z,0.25
2023-02-27T21:54:35.641Z,0.17
2023-02-27T21:57:03.700Z,0.29
2023-02-27T21:59:31.751Z,0.37
2023-02-27T22:02:00.084Z,0.35
2023-02-27T22:04:28.080Z,0.28
2023-02-27T22:06:57.334Z,0.25
2023-02-27T22:09:25.393Z,0.27
2023-02-27T22:11:53.427Z,0.27
2023-02-27T22:14:21.406Z,0.27
2023-02-27T22:16:49.374Z,0.22
2023-02-27T22:19:19.812Z,0.25
2023-02-27T22:21:47.952Z,0.19
2023-02-27T22:24:17.707Z,0.08
2023-02-27T22:26:47.648Z,0.13
2023-02-27T22:29:15.565Z,0.10
2023-02-27T22:31:43.810Z,0.06
2023-02-27T22:34:15.178Z,-0.06
2023-02-27T22:36:43.101Z,0.03
2023-02-27T22:39:12.465Z,-0.03
2023-02-27T22:41:43.341Z,-0.02
2023-02-27T22:44:14.730Z,0.00
2023-02-27T22:46:44.832Z,0.03
2023-02-27T22:49:15.424Z,0.00
2023-02-27T22:51:43.495Z,-0.06
2023-02-27T22:54:15.085Z,-0.13
2023-02-27T22:56:44.783Z,-0.14
2023-02-27T22:59:12.689Z,-0.13
2023-02-27T23:01:40.587Z,0.01
2023-02-27T23:04:10.033Z,-0.07
2023-02-27T23:06:39.953Z,-0.02
2023-02-27T23:09:16.818Z,-0.04
2023-02-27T23:11:46.362Z,-0.18
2023-02-27T23:14:14.763Z,-0.15
2023-02-27T23:16:45.629Z,-0.30
2023-02-27T23:19:14.766Z,-0.38
2023-02-27T23:21:42.813Z,-0.38
2023-02-27T23:24:13.013Z,-0.42
2023-02-27T23:26:43.308Z,-0.37
2023-02-27T23:29:13.239Z,-0.41
2023-02-27T23:31:42.227Z,-0.47
2023-02-27T23:34:10.737Z,-0.57
2023-02-27T23:36:40.689Z,-0.61
2023-02-27T23:39:08.863Z,-0.57
2023-02-27T23:41:36.946Z,-0.42
2023-02-27T23:44:04.916Z,-0.41
2023-02-27T23:46:34.161Z,-0.47
2023-02-27T23:49:02.109Z,-0.48
2023-02-27T23:51:31.017Z,-0.40
2023-02-27T23:53:59.058Z,-0.40
2023-02-27T23:56:29.838Z,-0.51
2023-02-27T23:58:59.673Z,-0.60
